createdAt,value
2023-01-25T00:00:24.368Z,14.13
2023-01-25T00:02:53.747Z,15.25
2023-01-25T00:05:23.083Z,15.32
2023-01-25T00:07:52.396Z,14.07
2023-01-25T00:10:23.460Z,14.23
2023-01-25T00:12:52.730Z,12.48
2023-01-25T00:15:21.850Z,11.20
2023-01-25T00:17:51.127Z,12.20
2023-01-25T00:20:20.791Z,11.45
2023-01-25T00:22:50.223Z,11.38
2023-01-25T00:25:19.714Z,11.75
2023-01-25T00:27:50.289Z,11.45
2023-01-25T00:30:19.643Z,12.05
2023-01-25T00:32:54.266Z,10.40
2023-01-25T00:35:23.624Z,10.35
2023-01-25T00:37:55.200Z,10.35
2023-01-25T00:40:24.534Z,11.93
2023-01-25T00:42:55.977Z,12.02
2023-01-25T00:45:25.426Z,13.90
2023-01-25T00:47:57.635Z,12.23
2023-01-25T00:50:27.323Z,12.63
2023-01-25T00:52:56.562Z,11.70
2023-01-25T00:55:25.968Z,13.32
2023-01-25T00:57:58.638Z,11.18
2023-01-25T01:00:27.924Z,11.80
2023-01-25T01:02:57.272Z,11.05
2023-01-25T01:05:27.704Z,11.73
2023-01-25T01:07:59.148Z,11.10
2023-01-25T01:10:28.480Z,10.48
2023-01-25T01:12:59.349Z,11.00
2023-01-25T01:15:28.525Z,10.27
2023-01-25T01:17:57.849Z,10.68
2023-01-25T01:20:27.407Z,10.80
2023-01-25T01:22:56.752Z,10.55
2023-01-25T01:25:26.003Z,11.18
2023-01-25T01:27:55.373Z,11.38
2023-01-25T01:30:26.379Z,10.18
2023-01-25T01:32:56.225Z,10.27
2023-01-25T01:35:26.808Z,10.40
2023-01-25T01:37:56.316Z,10.90
2023-01-25T01:40:26.402Z,10.35
2023-01-25T01:43:01.006Z,9.95
2023-01-25T01:45:56.389Z,10.18
2023-01-25T01:48:39.855Z,9.98
2023-01-25T01:51:17.581Z,10.57
2023-01-25T01:53:54.150Z,9.27
2023-01-25T01:56:28.906Z,10.25
2023-01-25T01:59:04.093Z,10.63
2023-01-25T02:01:36.332Z,11.20
2023-01-25T02:04:08.532Z,10.10
2023-01-25T02:06:45.373Z,10.48
2023-01-25T02:09:17.886Z,10.73
2023-01-25T02:11:48.570Z,11.18
2023-01-25T02:14:18.947Z,11.40
2023-01-25T02:16:49.606Z,11.27
2023-01-25T02:19:31.821Z,11.23
2023-01-25T02:22:07.878Z,11.20
2023-01-25T02:24:39.998Z,10.88
2023-01-25T02:27:10.464Z,10.75
2023-01-25T02:29:40.919Z,11.13
2023-01-25T02:32:10.257Z,10.90
2023-01-25T02:34:39.584Z,10.73
2023-01-25T02:37:14.447Z,10.52
2023-01-25T02:39:44.145Z,11.18
2023-01-25T02:42:14.762Z,11.80
2023-01-25T02:44:44.909Z,11.40
2023-01-25T02:47:14.239Z,9.77
2023-01-25T02:49:43.884Z,10.05
2023-01-25T02:52:13.397Z,9.82
2023-01-25T02:54:42.503Z,11.23
2023-01-25T02:57:11.708Z,10.65
2023-01-25T03:02:17.298Z,8.65
2023-01-25T03:04:46.459Z,9.27
2023-01-25T03:07:16.212Z,9.38
2023-01-25T03:09:46.867Z,10.02
2023-01-25T03:12:16.482Z,11.52
2023-01-25T03:14:48.993Z,10.43
2023-01-25T03:17:20.984Z,11.70
2023-01-25T03:19:50.585Z,11.13
2023-01-25T03:22:20.351Z,11.40
2023-01-25T03:24:50.004Z,10.30
2023-01-25T03:27:20.722Z,10.18
2023-01-25T03:29:55.746Z,10.77
2023-01-25T03:32:28.846Z,10.00
2023-01-25T03:34:59.223Z,10.20
2023-01-25T03:37:31.538Z,10.82
2023-01-25T03:40:02.183Z,9.73
2023-01-25T03:42:32.865Z,9.95
2023-01-25T03:45:03.440Z,9.18
2023-01-25T03:47:33.454Z,10.50
2023-01-25T03:50:03.008Z,10.63
2023-01-25T03:52:38.662Z,9.27
2023-01-25T03:55:10.972Z,11.20
2023-01-25T03:57:43.767Z,10.68
2023-01-25T04:00:15.891Z,10.00
2023-01-25T04:02:47.971Z,9.60
2023-01-25T04:05:20.998Z,10.02
2023-01-25T04:07:50.524Z,10.30
2023-01-25T04:10:25.881Z,9.88
2023-01-25T04:12:56.687Z,9.18
2023-01-25T04:15:27.972Z,9.32
2023-01-25T04:18:01.797Z,9.85
2023-01-25T04:20:31.539Z,10.05
2023-01-25T04:23:01.579Z,9.98
2023-01-25T04:25:37.961Z,9.60
2023-01-25T04:28:13.238Z,8.75
2023-01-25T04:30:44.419Z,8.40
2023-01-25T04:33:14.819Z,9.35
2023-01-25T04:35:45.667Z,9.68
2023-01-25T04:38:18.271Z,8.73
2023-01-25T04:40:48.537Z,9.95
2023-01-25T04:43:18.365Z,8.90
2023-01-25T04:45:49.540Z,8.30
2023-01-25T04:48:25.710Z,9.90
2023-01-25T04:50:59.621Z,8.80
2023-01-25T04:53:29.580Z,9.15
2023-01-25T04:56:02.486Z,9.27
2023-01-25T04:58:36.792Z,9.93
2023-01-25T05:01:08.145Z,10.50
2023-01-25T05:03:37.588Z,9.15
2023-01-25T05:06:10.927Z,8.80
2023-01-25T05:08:40.183Z,9.13
2023-01-25T05:11:09.813Z,10.35
2023-01-25T05:14:03.280Z,9.87
2023-01-25T05:16:38.233Z,10.52
2023-01-25T05:19:10.670Z,10.38
2023-01-25T05:22:01.875Z,9.82
2023-01-25T05:24:41.806Z,10.23
2023-01-25T05:27:14.429Z,9.73
2023-01-25T05:30:08.973Z,8.93
2023-01-25T05:32:56.064Z,10.77
2023-01-25T05:35:27.044Z,10.38
2023-01-25T05:37:58.966Z,12.30
2023-01-25T05:40:29.106Z,10.60
2023-01-25T05:43:02.586Z,11.25
2023-01-25T05:45:33.777Z,10.55
2023-01-25T05:48:06.299Z,10.18
2023-01-25T05:50:36.226Z,10.18
2023-01-25T05:53:08.778Z,9.90
2023-01-25T05:55:39.840Z,10.98
2023-01-25T05:58:12.617Z,10.80
2023-01-25T06:00:42.279Z,10.93
2023-01-25T06:05:46.986Z,9.23
2023-01-25T06:08:16.270Z,9.73
2023-01-25T06:10:49.432Z,11.10
2023-01-25T06:13:18.689Z,9.98
2023-01-25T06:15:53.635Z,10.18
2023-01-25T06:18:50.327Z,10.90
2023-01-25T06:21:38.398Z,10.05
2023-01-25T06:24:08.525Z,10.50
2023-01-25T06:26:38.136Z,10.50
2023-01-25T06:29:08.243Z,10.85
2023-01-25T06:31:37.535Z,11.05
2023-01-25T06:34:08.765Z,10.82
2023-01-25T06:36:38.340Z,11.55
2023-01-25T06:39:07.664Z,9.93
2023-01-25T06:41:36.852Z,10.52
2023-01-25T06:44:06.688Z,9.30
2023-01-25T06:46:36.407Z,11.98
2023-01-25T06:49:07.117Z,11.45
2023-01-25T06:51:36.363Z,10.63
2023-01-25T06:54:05.908Z,11.23
2023-01-25T06:56:35.565Z,11.63
2023-01-25T06:59:04.872Z,11.80
2023-01-25T07:01:35.115Z,10.60
2023-01-25T07:04:04.876Z,11.63
2023-01-25T07:06:36.143Z,11.15
2023-01-25T07:09:07.262Z,11.60
2023-01-25T07:11:37.206Z,11.15
2023-01-25T07:14:07.024Z,9.55
2023-01-25T07:16:38.772Z,11.98
2023-01-25T07:19:09.225Z,12.13
2023-01-25T07:21:40.446Z,11.85
2023-01-25T07:24:14.772Z,10.80
2023-01-25T07:26:44.555Z,11.15
2023-01-25T07:29:15.830Z,11.85
2023-01-25T07:31:46.171Z,11.50
2023-01-25T07:34:15.594Z,11.68
2023-01-25T07:36:47.121Z,11.85
2023-01-25T07:39:17.291Z,12.05
2023-01-25T07:41:47.824Z,11.95
2023-01-25T07:44:21.015Z,10.88
2023-01-25T07:46:56.935Z,13.23
2023-01-25T07:49:26.536Z,11.43
2023-01-25T07:51:57.189Z,10.20
2023-01-25T07:54:26.729Z,10.30
2023-01-25T07:56:57.992Z,9.40
2023-01-25T07:59:28.053Z,10.60
2023-01-25T08:01:58.197Z,9.88
2023-01-25T08:04:27.940Z,9.20
2023-01-25T08:07:01.618Z,10.68
2023-01-25T08:12:35.947Z,9.75
2023-01-25T08:15:10.227Z,11.23
2023-01-25T08:17:40.488Z,9.27
2023-01-25T08:20:12.702Z,11.52
2023-01-25T08:22:43.381Z,11.57
2023-01-25T08:25:12.789Z,11.38
2023-01-25T08:27:42.003Z,13.10
2023-01-25T08:30:13.132Z,11.38
2023-01-25T08:32:42.581Z,10.85
2023-01-25T08:35:13.667Z,10.75
2023-01-25T08:37:46.695Z,11.20
2023-01-25T08:40:16.110Z,11.75
2023-01-25T08:42:46.127Z,11.07
2023-01-25T08:45:20.126Z,11.68
2023-01-25T08:47:53.727Z,12.02
2023-01-25T08:50:23.405Z,11.43
2023-01-25T08:52:55.223Z,11.23
2023-01-25T08:55:24.628Z,12.90
2023-01-25T08:57:56.400Z,11.82
2023-01-25T09:00:26.246Z,12.10
2023-01-25T09:02:56.454Z,12.80
2023-01-25T09:05:26.576Z,12.23
2023-01-25T09:07:57.396Z,12.70
2023-01-25T09:10:26.932Z,13.20
2023-01-25T09:12:56.585Z,13.13
2023-01-25T09:15:26.045Z,15.20
2023-01-25T09:17:57.240Z,14.77
2023-01-25T09:20:27.506Z,16.15
2023-01-25T09:22:58.795Z,16.48
2023-01-25T09:25:28.304Z,14.65
2023-01-25T09:27:57.900Z,15.80
2023-01-25T09:30:40.840Z,16.27
2023-01-25T09:33:26.823Z,14.93
2023-01-25T09:35:56.621Z,16.42
2023-01-25T09:38:27.978Z,12.90
2023-01-25T09:41:13.904Z,14.63
2023-01-25T09:44:14.764Z,14.13
2023-01-25T09:46:49.094Z,13.95
2023-01-25T09:52:05.625Z,21.40
2023-01-25T09:54:47.007Z,14.77
2023-01-25T09:57:20.904Z,14.82
2023-01-25T09:59:53.044Z,15.27
2023-01-25T10:02:37.460Z,16.17
2023-01-25T10:05:13.762Z,17.02
2023-01-25T10:07:55.078Z,18.17
2023-01-25T10:10:34.616Z,18.65
2023-01-25T10:13:04.909Z,18.48
2023-01-25T10:15:41.693Z,18.63
2023-01-25T10:18:22.473Z,20.73
2023-01-25T10:20:58.511Z,17.20
2023-01-25T10:23:40.347Z,16.38
2023-01-25T10:26:20.412Z,16.33
2023-01-25T10:28:56.035Z,17.17
2023-01-25T10:31:32.637Z,15.85
2023-01-25T10:34:12.932Z,13.95
2023-01-25T10:36:43.906Z,15.40
2023-01-25T10:39:13.572Z,15.00
2023-01-25T10:41:48.298Z,13.20
2023-01-25T10:44:24.784Z,13.38
2023-01-25T10:47:01.103Z,13.65
2023-01-25T10:49:41.454Z,15.90
2023-01-25T10:52:18.078Z,15.43
2023-01-25T10:54:50.387Z,13.30
2023-01-25T10:57:23.858Z,13.57
2023-01-25T10:59:54.674Z,12.52
2023-01-25T11:02:45.169Z,13.00
2023-01-25T11:05:27.091Z,13.75
2023-01-25T11:07:56.982Z,12.52
2023-01-25T11:10:33.985Z,16.02
2023-01-25T11:13:26.635Z,18.25
2023-01-25T11:15:58.551Z,18.02
2023-01-25T11:18:31.741Z,16.27
2023-01-25T11:21:08.973Z,15.30
2023-01-25T11:23:38.529Z,16.00
2023-01-25T11:26:17.750Z,18.23
2023-01-25T11:28:49.775Z,23.23
2023-01-25T11:31:24.251Z,19.52
2023-01-25T11:33:53.874Z,19.40
2023-01-25T11:36:31.767Z,17.20
2023-01-25T11:39:16.086Z,16.38
2023-01-25T11:42:04.967Z,17.15
2023-01-25T11:45:04.639Z,18.55
2023-01-25T11:47:45.442Z,17.38
2023-01-25T11:50:21.351Z,16.55
2023-01-25T11:53:05.675Z,17.25
2023-01-25T11:55:47.102Z,18.27
2023-01-25T11:58:39.246Z,19.95
2023-01-25T12:01:18.767Z,18.90
2023-01-25T12:04:15.490Z,19.15
2023-01-25T12:06:58.618Z,16.58
2023-01-25T12:09:39.852Z,16.63
2023-01-25T12:12:20.560Z,16.70
2023-01-25T12:15:08.593Z,17.70
2023-01-25T12:17:55.080Z,18.23
2023-01-25T12:21:00.103Z,18.90
2023-01-25T12:23:42.299Z,16.13
2023-01-25T12:26:22.335Z,16.05
2023-01-25T12:28:58.686Z,17.13
2023-01-25T12:31:37.493Z,16.30
2023-01-25T12:34:13.033Z,18.67
2023-01-25T12:36:46.089Z,18.05
2023-01-25T12:39:22.081Z,18.15
2023-01-25T12:41:55.207Z,16.80
2023-01-25T12:44:29.132Z,16.70
2023-01-25T12:47:06.162Z,17.20
2023-01-25T12:49:42.329Z,17.73
2023-01-25T12:52:22.776Z,20.88
2023-01-25T12:54:56.970Z,22.02
2023-01-25T12:57:33.050Z,24.48
2023-01-25T13:00:10.480Z,23.02
2023-01-25T13:03:08.831Z,24.17
2023-01-25T13:05:43.463Z,22.67
2023-01-25T13:08:32.099Z,23.58
2023-01-25T13:11:13.378Z,24.08
2023-01-25T13:13:43.919Z,24.65
2023-01-25T13:16:41.547Z,22.27
2023-01-25T16:30:45.802Z,26.20
2023-01-25T16:33:15.786Z,25.53
2023-01-25T16:35:45.958Z,22.88
2023-01-25T16:38:15.120Z,25.48
2023-01-25T16:40:45.027Z,23.30
2023-01-25T16:43:14.935Z,27.38
2023-01-25T16:45:46.403Z,25.58
2023-01-25T16:48:16.913Z,25.35
2023-01-25T16:50:46.419Z,25.35
2023-01-25T16:53:15.789Z,26.00
2023-01-25T16:55:45.207Z,26.25
2023-01-25T16:58:14.737Z,26.17
2023-01-25T17:00:46.332Z,27.85
2023-01-25T17:03:15.711Z,26.17
2023-01-25T17:05:45.340Z,28.77
2023-01-25T17:08:14.667Z,28.73
2023-01-25T17:10:44.907Z,27.30
2023-01-25T17:13:15.441Z,25.80
2023-01-25T17:15:46.813Z,27.38
2023-01-25T17:18:16.291Z,27.52
2023-01-25T17:20:45.927Z,25.83
2023-01-25T17:23:15.304Z,28.30
2023-01-25T17:25:44.806Z,26.80
2023-01-25T17:28:15.213Z,25.80
2023-01-25T17:30:46.012Z,28.00
2023-01-25T17:33:17.845Z,27.55
2023-01-25T17:35:47.528Z,26.85
2023-01-25T17:38:18.801Z,27.95
2023-01-25T17:40:49.773Z,27.30
2023-01-25T17:43:19.294Z,27.38
2023-01-25T17:45:50.165Z,25.65
2023-01-25T17:48:19.700Z,25.30
2023-01-25T17:50:49.165Z,27.20
2023-01-25T17:53:18.458Z,25.38
2023-01-25T17:55:48.450Z,23.52
2023-01-25T17:58:18.064Z,23.30
2023-01-25T18:00:48.138Z,24.17
2023-01-25T18:03:19.399Z,24.17
2023-01-25T18:05:49.037Z,27.30
2023-01-25T18:08:18.416Z,24.27
2023-01-25T18:10:47.725Z,25.05
2023-01-25T18:13:17.011Z,25.60
2023-01-25T18:15:46.354Z,24.75
2023-01-25T18:18:16.331Z,24.20
2023-01-25T18:20:47.404Z,25.83
2023-01-25T18:23:17.568Z,25.83
2023-01-25T18:25:47.852Z,23.40
2023-01-25T18:28:18.446Z,24.65
2023-01-25T18:30:55.453Z,25.40
2023-01-25T18:33:25.614Z,23.33
2023-01-25T18:36:01.900Z,26.58
2023-01-25T18:38:33.291Z,25.25
2023-01-25T18:41:02.701Z,24.95
2023-01-25T18:43:33.685Z,25.63
2023-01-25T18:46:03.795Z,24.60
2023-01-25T18:48:34.654Z,26.73
2023-01-25T18:51:11.301Z,26.83
2023-01-25T18:53:43.013Z,28.92
2023-01-25T18:56:15.315Z,27.02
2023-01-25T18:58:46.332Z,26.42
2023-01-25T19:01:17.295Z,25.02
2023-01-25T19:03:50.228Z,26.08
2023-01-25T19:06:21.887Z,25.70
2023-01-25T19:08:54.574Z,28.30
2023-01-25T19:11:25.077Z,27.30
2023-01-25T19:13:54.605Z,28.55
2023-01-25T19:16:25.679Z,29.23
2023-01-25T19:18:56.099Z,26.15
2023-01-25T19:21:28.640Z,28.48
2023-01-25T19:23:58.349Z,28.05
2023-01-25T19:26:28.368Z,28.65
2023-01-25T19:28:58.108Z,26.45
2023-01-25T19:31:32.148Z,28.33
2023-01-25T19:34:03.483Z,28.67
2023-01-25T19:36:36.269Z,27.33
2023-01-25T19:39:10.202Z,26.63
2023-01-25T19:41:40.714Z,27.58
2023-01-25T19:44:14.057Z,26.40
2023-01-25T19:46:44.300Z,28.85
2023-01-25T19:49:15.204Z,28.73
2023-01-25T19:51:53.181Z,26.30
2023-01-25T19:54:24.401Z,27.80
2023-01-25T19:56:53.983Z,27.90
2023-01-25T19:59:26.960Z,28.95
2023-01-25T20:01:56.507Z,28.43
2023-01-25T20:04:26.432Z,26.25
2023-01-25T20:07:00.101Z,26.33
2023-01-25T20:09:29.864Z,27.58
2023-01-25T20:12:00.992Z,27.80
2023-01-25T20:14:30.822Z,24.77
2023-01-25T20:17:00.989Z,24.38
2023-01-25T20:19:30.619Z,26.73
2023-01-25T20:22:03.352Z,25.10
2023-01-25T20:24:32.968Z,26.77
2023-01-25T20:27:04.258Z,26.13
2023-01-25T20:29:33.812Z,27.70
2023-01-25T20:32:05.749Z,24.98
2023-01-25T20:34:35.236Z,25.92
2023-01-25T20:37:06.100Z,26.05
2023-01-25T20:39:36.025Z,25.90
2023-01-25T20:42:05.874Z,28.80
2023-01-25T20:44:35.741Z,24.08
2023-01-25T20:47:05.224Z,25.35
2023-01-25T20:49:35.415Z,25.67
2023-01-25T20:52:07.700Z,25.77
2023-01-25T20:54:38.367Z,24.77
2023-01-25T20:57:07.866Z,24.27
2023-01-25T20:59:37.369Z,24.50
2023-01-25T21:02:06.934Z,26.13
2023-01-25T21:04:36.157Z,24.20
2023-01-25T21:07:06.986Z,26.85
2023-01-25T21:09:36.516Z,27.20
2023-01-25T21:12:06.234Z,25.13
2023-01-25T21:14:35.535Z,24.63
2023-01-25T21:17:05.119Z,25.98
2023-01-25T21:19:34.493Z,22.90
2023-01-25T21:22:03.896Z,22.60
2023-01-25T21:24:34.732Z,23.88
2023-01-25T21:27:04.410Z,24.83
2023-01-25T21:29:34.161Z,25.08
2023-01-25T21:32:04.649Z,21.95
2023-01-25T21:34:34.393Z,24.00
2023-01-25T21:37:03.831Z,24.58
2023-01-25T21:39:35.707Z,25.20
2023-01-25T21:42:05.297Z,24.50
2023-01-25T21:44:52.925Z,24.08
2023-01-25T21:47:31.140Z,22.40
2023-01-25T21:50:15.415Z,24.60
2023-01-25T21:55:18.155Z,23.73
2023-01-25T21:57:47.765Z,21.87
2023-01-25T22:00:17.994Z,21.63
2023-01-25T22:02:47.511Z,22.50
2023-01-25T22:05:17.310Z,21.35
2023-01-25T22:07:46.752Z,22.42
2023-01-25T22:10:17.999Z,20.90
2023-01-25T22:12:50.738Z,20.33
2023-01-25T22:15:20.052Z,19.67
